Decoded Metar for K24A ( in ) (IATA:) | Meteo·Mobile Aviation Weather
aviador You're here:

K24A Decoded Metar

in
Report Time2018-12-15 19:00:00
UTC Time2018-12-15 19:21:44
Flight Rules vfr VFR
Wind150° at 13 Gusting to 16 kt
W.Rank150° ranks 4
Current wind is above 150° avg. (6.1)
Visibility9999 m
Phenomena:N/A
Clouds:Broken 030 Hf
Broken 035 Hf
Expected CloudBase > 2,400 ft AGL from Temp-Dew spread
Ceiling3,000 ft
Temp12°C
Dew Point06°C (67% RH)
AAT6.4°C
QNH1011 hPa
Raw Report
K24A 151900Z AUTO 15013G16KT 10SM BKN030 BKN035 12/06 A2986 RMK
AO2 T01170056=

Extra information for K24A:More info

Social comments